Time;durP1;ratioP1;P1;durP2;ratioP2;P2;SDS_P1;SDS_P2;PMS_P1;PMS_P2;Temp;Humidity;BMP_temperature;BMP_pressure;BME280_temperature;BME280_humidity;BME280_pressure;Samples;Min_cycle;Max_cycle;Signal;HPM_P1;HPM_P2
2023/09/14 00:05:51;;;;;;;4.72;1.52;;;;;;;16.74;100.00;98210.87;18498908;32;20048;-56
2023/09/14 00:15:54;;;;;;;6.37;2.27;;;;;;;16.67;100.00;98206.91;18506843;32;20053;-56
2023/09/14 00:25:57;;;;;;;3.87;1.53;;;;;;;16.64;100.00;98210.25;18507330;32;20061;-56
2023/09/14 00:36:00;;;;;;;4.97;1.70;;;;;;;16.54;100.00;98209.28;18505355;32;20048;-56
2023/09/14 00:46:02;;;;;;;2.90;1.70;;;;;;;16.49;100.00;98209.34;18565624;32;20112;-56
2023/09/14 00:56:06;;;;;;;4.33;1.60;;;;;;;16.40;100.00;98208.38;18556001;32;20049;-56
2023/09/14 01:06:10;;;;;;;;;;;;;;;16.25;100.00;98196.59;18570068;32;20108;-56
2023/09/14 01:16:26;;;;;;;3.67;1.67;;;;;;;16.14;100.00;98188.84;18569245;32;19970;-56
2023/09/14 01:26:29;;;;;;;2.08;1.25;;;;;;;16.04;100.00;98195.25;18568850;32;20045;-56
2023/09/14 01:36:42;;;;;;;2.50;1.33;;;;;;;15.87;100.00;98191.09;18553844;32;20112;-56
2023/09/14 01:46:45;;;;;;;3.60;1.67;;;;;;;15.79;100.00;98186.25;18567403;31;20071;-55
2023/09/14 01:56:48;;;;;;;5.22;1.27;;;;;;;15.68;100.00;98185.56;18566561;32;20086;-56
2023/09/14 02:06:51;;;;;;;2.33;1.00;;;;;;;15.50;100.00;98187.13;18565988;32;20041;-55
2023/09/14 02:16:53;;;;;;;2.65;1.00;;;;;;;15.43;100.00;98189.41;18565706;32;20101;-56
2023/09/14 02:26:57;;;;;;;3.75;0.75;;;;;;;15.37;100.00;98193.25;18550399;32;20084;-56
2023/09/14 02:36:59;;;;;;;8.95;2.10;;;;;;;15.27;100.00;98182.50;18563262;32;20057;-56
2023/09/14 02:47:02;;;;;;;6.90;1.70;;;;;;;15.25;100.00;98169.97;18549688;32;20395;-56
2023/09/14 02:57:05;;;;;;;1.53;1.17;;;;;;;15.22;100.00;98175.16;18562934;32;20095;-56
2023/09/14 03:07:08;;;;;;;3.73;1.10;;;;;;;15.17;100.00;98181.47;18562469;32;20095;-56
2023/09/14 03:17:11;;;;;;;4.23;1.40;;;;;;;15.06;100.00;98185.38;18561823;32;20057;-56
2023/09/14 03:27:16;;;;;;;2.17;1.30;;;;;;;15.03;100.00;98183.25;18561543;32;20126;-56
2023/09/14 03:37:19;;;;;;;1.27;1.10;;;;;;;14.98;100.00;98191.44;18546442;31;20127;-56
2023/09/14 03:47:22;;;;;;;1.58;1.20;;;;;;;14.94;100.00;98190.41;18560576;32;20040;-56
2023/09/14 03:57:25;;;;;;;3.70;1.47;;;;;;;14.86;100.00;98184.47;18560777;32;20075;-56
2023/09/14 04:07:28;;;;;;;3.62;1.70;;;;;;;14.83;100.00;98186.97;18559852;32;20475;-56
2023/09/14 04:17:30;;;;;;;3.95;1.52;;;;;;;14.84;100.00;98181.25;18545817;32;20070;-56
2023/09/14 04:27:34;;;;;;;3.95;1.55;;;;;;;14.82;100.00;98193.50;18559255;32;20061;-56
2023/09/14 04:37:36;;;;;;;5.55;1.50;;;;;;;14.84;100.00;98194.84;18558887;32;20048;-56
2023/09/14 04:47:39;;;;;;;2.17;1.67;;;;;;;14.91;100.00;98210.87;18558651;32;20087;-56
2023/09/14 04:57:42;;;;;;;2.28;1.83;;;;;;;14.99;100.00;98214.88;18553609;32;20338;-56
2023/09/14 05:07:44;;;;;;;2.83;1.85;;;;;;;15.12;100.00;98216.94;18569664;32;20052;-56
2023/09/14 05:17:47;;;;;;;2.85;2.12;;;;;;;15.18;100.00;98217.69;18569118;32;20092;-56
2023/09/14 05:27:50;;;;;;;3.25;2.47;;;;;;;15.31;100.00;98227.13;18541669;31;20053;-57
2023/09/14 05:37:53;;;;;;;5.32;3.47;;;;;;;15.42;100.00;98234.09;18567585;32;20075;-56
2023/09/14 05:47:56;;;;;;;8.00;3.97;;;;;;;15.58;100.00;98234.72;18553200;32;20040;-56
2023/09/14 05:57:59;;;;;;;5.07;4.00;;;;;;;15.75;100.00;98247.91;18566622;32;20067;-56
2023/09/14 06:08:03;;;;;;;7.57;5.33;;;;;;;15.85;100.00;98249.75;18566692;32;20402;-56
2023/09/14 06:18:07;;;;;;;10.57;7.25;;;;;;;15.98;100.00;98251.78;18565443;32;20096;-56
2023/09/14 06:28:11;;;;;;;;;;;;;;;15.93;100.00;98262.75;18564984;32;20053;-57
2023/09/14 06:38:14;;;;;;;12.32;8.82;;;;;;;15.97;100.00;98263.00;18563970;32;19985;-57
2023/09/14 06:48:17;;;;;;;13.90;10.63;;;;;;;16.11;100.00;98265.81;18563585;32;20108;-56
2023/09/14 06:58:20;;;;;;;12.63;8.27;;;;;;;16.18;100.00;98272.53;18562830;32;20081;-57
2023/09/14 07:08:23;;;;;;;14.07;10.43;;;;;;;16.30;100.00;98268.59;18562303;32;20083;-56
2023/09/14 07:18:27;;;;;;;16.03;12.23;;;;;;;16.35;100.00;98268.50;18561284;31;20053;-56
2023/09/14 07:28:30;;;;;;;13.48;8.82;;;;;;;16.42;100.00;98269.75;18561224;32;20087;-57
2023/09/14 07:38:34;;;;;;;13.07;9.63;;;;;;;16.48;100.00;98275.16;18560820;32;20113;-57
2023/09/14 07:48:37;;;;;;;16.00;11.60;;;;;;;16.62;100.00;98275.25;18546357;32;20102;-57
2023/09/14 07:58:41;;;;;;;10.40;8.50;;;;;;;16.73;100.00;98276.72;18560123;32;20069;-57
2023/09/14 08:08:46;;;;;;;13.93;9.40;;;;;;;17.03;100.00;98286.37;18546039;32;20056;-56
2023/09/14 08:18:49;;;;;;;12.52;9.38;;;;;;;17.44;100.00;98299.41;18559679;32;20049;-57
2023/09/14 08:28:52;;;;;;;13.45;9.18;;;;;;;17.94;100.00;98301.53;18563611;32;20052;-56
2023/09/14 08:38:56;;;;;;;16.85;9.38;;;;;;;18.11;100.00;98305.59;18571682;32;20394;-57
2023/09/14 08:49:21;;;;;;;11.88;8.88;;;;;;;18.21;100.00;98302.66;18571102;32;20101;-57
2023/09/14 08:59:27;;;;;;;10.30;7.93;;;;;;;18.31;100.00;98300.81;18556231;32;20057;-57
2023/09/14 09:09:30;;;;;;;13.95;9.02;;;;;;;18.37;100.00;98299.59;18555085;32;20080;-57
2023/09/14 09:19:52;;;;;;;15.52;9.45;;;;;;;18.60;100.00;98297.75;18542231;32;20049;-57
2023/09/14 09:29:58;;;;;;;12.83;10.27;;;;;;;18.69;100.00;98281.38;18568616;32;20052;-57
2023/09/14 09:40:01;;;;;;;14.50;12.05;;;;;;;19.08;100.00;98269.81;18567138;31;20057;-56
2023/09/14 09:50:13;;;;;;;13.60;10.65;;;;;;;19.41;100.00;98268.75;18567507;32;20056;-57
2023/09/14 10:00:19;;;;;;;11.70;9.50;;;;;;;19.17;100.00;98274.53;18552563;31;20124;-56
2023/09/14 10:10:26;;;;;;;11.50;8.80;;;;;;;19.68;100.00;98266.91;18566598;32;20052;-57
2023/09/14 10:20:30;;;;;;;11.18;8.63;;;;;;;19.71;100.00;98266.31;18565530;32;20471;-56
2023/09/14 10:30:34;;;;;;;13.07;9.57;;;;;;;19.96;100.00;98245.63;18564906;32;20377;-56
2023/09/14 10:40:39;;;;;;;10.73;8.20;;;;;;;19.85;100.00;98245.09;18564257;32;20103;-56
2023/09/14 10:50:42;;;;;;;9.30;7.10;;;;;;;19.76;100.00;98233.22;18562660;32;20052;-57
2023/09/14 11:01:00;;;;;;;10.80;7.72;;;;;;;19.96;100.00;98229.94;18562865;32;20091;-57
2023/09/14 11:11:06;;;;;;;10.13;7.00;;;;;;;20.16;100.00;98214.03;18562340;32;20053;-57
2023/09/14 11:21:42;;;;;;;10.95;6.70;;;;;;;20.48;100.00;98207.25;18548097;32;20452;-57
2023/09/14 11:31:56;;;;;;;10.52;6.65;;;;;;;20.50;100.00;98190.47;18561468;32;20079;-57
2023/09/14 11:42:08;;;;;;;9.98;7.37;;;;;;;21.08;100.00;98193.84;18560854;32;20041;-57
2023/09/14 11:52:19;;;;;;;8.63;6.87;;;;;;;21.58;100.00;98188.84;18560520;31;20433;-57
2023/09/14 12:02:24;;;;;;;7.60;6.43;;;;;;;21.39;100.00;98173.53;18564644;32;20065;-57
2023/09/14 12:12:30;;;;;;;6.85;5.93;;;;;;;21.83;100.00;98167.88;18559348;32;20334;-57
2023/09/14 12:22:34;;;;;;;9.48;6.43;;;;;;;22.24;100.00;98166.31;18558893;32;20056;-57
2023/09/14 12:32:38;;;;;;;6.25;5.43;;;;;;;22.26;100.00;98152.19;18571953;32;20049;-57
2023/09/14 12:42:43;;;;;;;4.78;4.30;;;;;;;22.35;100.00;98139.19;18557451;32;20049;-57
2023/09/14 12:52:49;;;;;;;7.53;4.93;;;;;;;22.67;100.00;98137.59;18555376;32;20059;-57
2023/09/14 13:02:52;;;;;;;4.95;4.45;;;;;;;22.94;100.00;98131.81;18570201;32;20049;-57
2023/09/14 13:13:06;;;;;;;4.55;4.12;;;;;;;23.46;100.00;98116.66;18568571;32;20116;-57
2023/09/14 13:23:11;;;;;;;4.82;4.30;;;;;;;23.25;100.00;98106.50;18569073;32;20067;-57
2023/09/14 13:33:14;;;;;;;3.83;3.42;;;;;;;23.06;100.00;98106.25;18568373;32;20079;-57
2023/09/14 13:43:17;;;;;;;4.10;3.10;;;;;;;23.22;100.00;98087.91;18567343;32;20060;-57
2023/09/14 13:53:20;;;;;;;;;;;;;;;23.52;100.00;98077.44;18567330;32;20326;-57
2023/09/14 14:03:22;;;;;;;4.50;3.57;;;;;;;24.01;100.00;98067.50;18552391;32;19956;-57
2023/09/14 14:13:26;;;;;;;3.22;2.92;;;;;;;24.29;100.00;98064.75;18566092;32;20063;-57
2023/09/14 14:23:29;;;;;;;2.90;2.60;;;;;;;24.11;100.00;98057.91;18551396;32;20497;-57
2023/09/14 14:33:33;;;;;;;2.60;2.40;;;;;;;23.78;100.00;98050.63;18550365;31;20053;-57
2023/09/14 14:43:38;;;;;;;3.87;2.70;;;;;;;23.46;100.00;98040.19;18550039;32;20052;-57
2023/09/14 14:53:44;;;;;;;3.45;2.90;;;;;;;23.49;100.00;98042.25;18549541;32;20056;-57
2023/09/14 15:03:47;;;;;;;3.55;3.05;;;;;;;23.93;100.00;98038.88;18562786;32;20079;-57
2023/09/14 15:13:53;;;;;;;4.32;3.17;;;;;;;23.73;100.00;98026.00;18562326;32;20420;-57
2023/09/14 15:23:56;;;;;;;3.30;3.00;;;;;;;23.55;100.00;98029.00;18561483;32;20141;-57
2023/09/14 15:34:00;;;;;;;3.65;3.00;;;;;;;23.30;100.00;98018.00;18560882;32;20075;-58
2023/09/14 15:44:04;;;;;;;3.53;3.00;;;;;;;23.24;100.00;98027.69;18560116;32;20113;-57
2023/09/14 15:54:07;;;;;;;5.05;3.03;;;;;;;23.21;100.00;98022.03;18560973;32;20053;-57
2023/09/14 16:04:13;;;;;;;6.45;2.75;;;;;;;23.06;100.00;98016.00;18560206;32;20064;-57
2023/09/14 16:14:16;;;;;;;3.80;3.30;;;;;;;22.85;100.00;98019.69;18560122;32;20060;-57
2023/09/14 16:24:21;;;;;;;3.70;3.12;;;;;;;22.65;100.00;98012.31;18559565;31;20146;-57
2023/09/14 16:34:24;;;;;;;3.92;3.22;;;;;;;22.35;100.00;98012.44;18559424;32;20080;-57
2023/09/14 16:44:27;;;;;;;;;;;;;;;22.04;100.00;98001.88;18544963;32;20480;-57
2023/09/14 16:54:29;;;;;;;5.43;3.47;;;;;;;21.72;100.00;97996.81;18568538;32;19948;-57
2023/09/14 17:04:33;;;;;;;6.03;3.03;;;;;;;21.46;100.00;98000.50;18570135;32;20365;-57
2023/09/14 17:14:35;;;;;;;4.40;3.17;;;;;;;21.15;100.00;98003.63;18555616;32;20094;-57
2023/09/14 17:24:38;;;;;;;3.80;3.27;;;;;;;20.89;100.00;98007.28;18569348;32;20449;-57
2023/09/14 17:34:41;;;;;;;8.50;3.50;;;;;;;20.67;100.00;98004.78;18553850;32;20369;-57
2023/09/14 17:44:44;;;;;;;6.57;3.40;;;;;;;20.45;100.00;98006.59;18567639;32;20459;-57
2023/09/14 17:54:46;;;;;;;8.67;3.07;;;;;;;20.25;100.00;98003.37;18567002;32;20071;-56
2023/09/14 18:04:49;;;;;;;6.23;3.17;;;;;;;20.08;100.00;97992.47;18566233;32;20382;-57
2023/09/14 18:14:51;;;;;;;5.62;3.22;;;;;;;19.89;100.00;97999.09;18565771;31;20075;-57
2023/09/14 18:24:54;;;;;;;6.77;3.20;;;;;;;19.69;100.00;98002.44;18565389;32;20436;-57
2023/09/14 18:34:56;;;;;;;6.63;3.17;;;;;;;19.49;100.00;98004.69;18564582;32;20102;-57
2023/09/14 18:44:59;;;;;;;4.80;3.37;;;;;;;19.27;100.00;98017.38;18563941;32;20150;-57
2023/09/14 18:55:02;;;;;;;5.10;3.20;;;;;;;19.05;100.00;98020.19;18563466;32;20087;-57
2023/09/14 19:05:06;;;;;;;6.57;3.53;;;;;;;18.85;100.00;98030.59;18562778;32;20099;-57
2023/09/14 19:15:09;;;;;;;6.60;3.30;;;;;;;18.74;100.00;98035.53;18561920;32;20188;-57
2023/09/14 19:25:13;;;;;;;6.22;3.12;;;;;;;18.59;100.00;98025.78;18561859;32;20056;-57
2023/09/14 19:35:17;;;;;;;5.10;3.15;;;;;;;18.46;100.00;98029.44;18546957;32;20045;-57
2023/09/14 19:45:19;;;;;;;5.47;3.40;;;;;;;18.39;100.00;98023.56;18560939;32;20473;-57
2023/09/14 19:55:22;;;;;;;4.83;3.53;;;;;;;18.31;100.00;98038.84;18560468;32;20069;-57
2023/09/14 20:05:24;;;;;;;4.37;3.78;;;;;;;18.23;100.00;98032.16;18559989;32;20097;-57
2023/09/14 20:15:28;;;;;;;6.10;4.10;;;;;;;18.16;100.00;98029.06;18559984;32;20074;-57
2023/09/14 20:25:31;;;;;;;4.78;3.22;;;;;;;18.11;100.00;98024.50;18538865;32;20441;-57
2023/09/14 20:35:33;;;;;;;4.10;3.50;;;;;;;18.07;100.00;98018.03;18572001;32;20475;-56
2023/09/14 20:45:38;;;;;;;3.17;2.87;;;;;;;17.89;100.00;98011.59;18571199;32;20429;-57
2023/09/14 20:55:44;;;;;;;5.78;3.50;;;;;;;17.71;100.00;98012.59;18570698;31;20057;-57
2023/09/14 21:05:48;;;;;;;7.68;3.45;;;;;;;17.51;100.00;98017.38;18570665;32;20443;-57
2023/09/14 21:15:50;;;;;;;;;;;;;;;17.34;100.00;98004.37;18555898;32;20049;-56
2023/09/14 21:25:59;;;;;;;3.28;2.90;;;;;;;17.11;100.00;97998.00;18569409;32;20237;-56
2023/09/14 21:36:02;;;;;;;3.85;2.37;;;;;;;16.88;100.00;97991.63;18553435;32;20105;-57
2023/09/14 21:46:05;;;;;;;5.95;2.45;;;;;;;16.71;100.00;98000.41;18567971;32;20077;-57
2023/09/14 21:56:08;;;;;;;5.20;2.35;;;;;;;16.55;100.00;97997.97;18553264;32;20102;-57
2023/09/14 22:06:11;;;;;;;4.47;2.42;;;;;;;16.38;100.00;97992.28;18566522;32;20049;-56
2023/09/14 22:16:26;;;;;;;4.70;2.58;;;;;;;16.23;100.00;98007.00;18553491;32;20048;-56
2023/09/14 22:26:33;;;;;;;2.53;2.20;;;;;;;16.12;100.00;98003.63;18551194;32;20049;-57
2023/09/14 22:36:36;;;;;;;2.75;1.80;;;;;;;15.96;100.00;97999.53;18564819;32;20044;-56
2023/09/14 22:46:38;;;;;;;4.47;2.50;;;;;;;15.86;100.00;98004.03;18562901;31;20060;-56
2023/09/14 22:56:40;;;;;;;4.57;2.12;;;;;;;15.82;100.00;97992.09;18563382;32;20412;-57
2023/09/14 23:06:44;;;;;;;4.25;2.00;;;;;;;15.79;100.00;97998.13;18562945;32;20052;-57
2023/09/14 23:16:51;;;;;;;2.17;1.75;;;;;;;15.80;100.00;97977.97;18548427;32;20074;-57
2023/09/14 23:26:54;;;;;;;8.10;2.17;;;;;;;15.63;100.00;97974.94;18561977;32;20057;-56
2023/09/14 23:36:57;;;;;;;2.10;1.80;;;;;;;15.42;100.00;97969.78;18560994;32;20064;-55
2023/09/14 23:47:00;;;;;;;2.53;1.90;;;;;;;15.30;100.00;97963.94;18547054;32;20585;-56
2023/09/14 23:57:02;;;;;;;5.28;1.73;;;;;;;15.17;100.00;97960.03;18533490;32;20080;-57
